Cobb County-Mc Collum Field Atlanta US
ICAO: KRYY
IATA: RYY
Category: Medium
Scheduled Services: No

Elevation: 1040 ft
TransAlt. 18000 ft.

Airport Communications:
ATLANTA APP/DEP:121
AWOS 3:128.125
CTAF:125.9
GND:119
MC COLLUM TWR:125.9
UNICOM:122.7

KRYY Zoom In..

Runways:

(A) RW 09 length 6311 ft width 100 ft
---- / hdg 93

(B) RW 27 length 6311 ft width 100 ft
ILS 111.90 / hdg 273

Location; KRYY
Day. 11 / Time. 08.50 Zulu
* Altimeter: 30.03
* Temperature: 6/° c. 42.8°f.
* Wind from: 000° Speed 00 kn.
Dewpoint: //° c.
Visibility: 10 Statute Miles.
Clouds: Clear (automated report).

KRYY 110850Z AUTO 00000KT 10SM CLR 23/21 A3003 RMK AO2 SLP890 6//// T02280211 55013 PNO $

Going to: --> -->


Wind - Calm.

 
 
jpsmedia worldairports.se 2020   terms of use